Estación Meteorológica Peña el Pijo (Robertgarden) [ 02/03/23 03:33:02 CET ]

Fecha Hora Presion(HPa) Temp (°C) Humedad % Rocio (°C) Viento ( m/s) Direccion Lluvia 1Hora(mm) Lluvia 24H(mm) LLuvia Total(mm)
2012-Apr-25 01:01:16 1006.000 7.9 57 -0.1         158.50
2012-Apr-25 02:01:14 1005.800 7.2 57 -0.8         158.50
2012-Apr-25 03:03:19 1005.200 6.2 61 -0.8         158.50
2012-Apr-25 04:01:14 1004.900 4.3 67 -1.3         158.50
2012-Apr-25 05:01:14 1004.500 3.8 69 -1.4         158.50
2012-Apr-25 06:01:13 1003.900 2.9 72 -1.6         158.50
2012-Apr-25 07:01:13 1003.600 2.3 74 -1.9         158.50
2012-Apr-25 08:01:13 1003.600 1.8 77 -1.8         158.50
2012-Apr-25 09:01:14 1003.400 8.9 64 2.4         158.50
2012-Apr-25 10:01:13 1003.200 14.2 44 2.1         158.50
2012-Apr-25 11:01:12 1002.400 18.3 28 -0.6 2.5 WSW     158.50
2012-Apr-25 12:01:13 1002.300 22.3 18 -3.5         158.50
2012-Apr-25 13:01:13 1002.200 23.8 16 -4.1 2.4 SE     158.50
2012-Apr-25 14:01:17 1001.300 24.1 17 -3.0 3.7 SE     158.50
2012-Apr-25 15:01:15 1000.800 25.5 17 -1.9 0.6 E     158.50
2012-Apr-25 16:01:15 1000.400 25.9 17 -1.6         158.50
2012-Apr-25 17:01:15 1000.000 24.9 18 -1.4 3.3 S     158.50
2012-Apr-25 18:01:13 1000.000 22.6 21 -0.9 4.8 SSW     158.50
2012-Apr-25 19:01:19 1000.300 21.0 25 0.0         158.50
2012-Apr-25 20:01:14 1000.500 18.5 32 1.4 1.1 SE     158.50
2012-Apr-25 21:01:11 1000.700 17.0 34 0.9 0.6 S     158.50
2012-Apr-25 22:01:12 1001.200 13.9 41 0.8         158.50
2012-Apr-25 23:01:14 1001.800 11.8 47 0.8         158.50

Temperatura Máxima:25°    Temperatura Mínima:
Presión Máxima:1006.000 Hpa    Presión Mínima:1000.000 Hpa


Volver